Weather Underground® Station Historical Data


Station Historical Data For Bruceton, TN. (K3JAE's Weather Station - KTNBRUCE2)
Daily Summary for:  January 03, 2018 Units:  Metric    English   Both
« Previous Day
Next Day »
Daily Weekly Monthly Yearly Custom
  High: Low: Average:
Temperature: 0.6 °C -9.3 °C -5 °C
Dew Point: -10.1 °C -13.1 °C -11.6 °C
Humidity: 81% 38% 62%
Wind Speed: 22.5km/h 0km/h 6.8km/h
Wind Gust: 22.5km/h - -
Wind- - West
Pressure: 1030.4 hPa 1022.6 hPa -
Precipitation: 0 mm    
Historical Graphs
 
 
Tabular Data for:  January 03, 2018
Time Temperature Dew Point Pressure Wind Wind Speed Wind Gust Humidity Rainfall Rate (Hourly) solar Conditions
00:01 -8.8 °C -11.8 °C 1030.4 hPa Calm     79% 0 mm 0.0 W/m2 FEW
00:02 -8.8 °C -11.8 °C 1030.4 hPa Calm     79% 0 mm 0.0 W/m2 FEW
00:07 -8.8 °C -12 °C 1030 hPa Calm     78% 0 mm 0.0 W/m2 FEW
00:12 -8.9 °C -12.2 °C 1030 hPa Calm     77% 0 mm 0.0 W/m2 FEW
00:15 -8.9 °C -12.2 °C 1030 hPa Calm     77% 0 mm 0.0 W/m2 FEW
00:16 -8.9 °C -12.2 °C 1029.7 hPa Calm     77% 0 mm 0.0 W/m2 FEW
00:21 -9 °C -12.1 °C 1029.7 hPa Calm     78% 0 mm 0.0 W/m2 FEW
00:24 -9 °C -12.1 °C 1029.7 hPa Calm     78% 0 mm 0.0 W/m2 FEW
00:25 -9.1 °C -12.2 °C 1029.7 hPa Calm     78% 0 mm 0.0 W/m2 FEW
00:30 -9.2 °C -12 °C 1029.7 hPa Calm     80% 0 mm 0.0 W/m2 FEW
00:35 -9.2 °C -12.1 °C 1029.7 hPa ENE 1.9 km/h 1.9 km/h 80% 0 mm 0.0 W/m2 FEW
00:36 -9.2 °C -12.1 °C 1029.7 hPa ENE 1.9 km/h 1.9 km/h 80% 0 mm 0.0 W/m2 FEW
00:39 -9.3 °C -11.9 °C 1029.7 hPa ENE 1.9 km/h   81% 0 mm 0.0 W/m2 FEW
00:43 -9.3 °C -12.1 °C 1029.7 hPa Calm     80% 0 mm 0.0 W/m2 FEW
00:50 -9.3 °C -12.2 °C 1029.3 hPa Calm     80% 0 mm 0.0 W/m2 FEW
01:00 -9.3 °C -12.2 °C 1029.3 hPa Calm     80% 0 mm 0.0 W/m2 SCT
01:01 -9.3 °C -12.2 °C 1029.3 hPa Calm     80% 0 mm 0.0 W/m2 SCT
01:06 -9.3 °C -12.3 °C 1029.3 hPa Calm     79% 0 mm 0.0 W/m2 SCT
01:09 -9.3 °C -12.3 °C 1029.7 hPa Calm     79% 0 mm 0.0 W/m2 SCT
01:13 -9.3 °C -12.4 °C 1029.7 hPa Calm     78% 0 mm 0.0 W/m2 SCT
01:14 -9.3 °C -12.4 °C 1029.7 hPa Calm     78% 0 mm 0.0 W/m2 SCT
01:19 -9.3 °C -12.4 °C 1029.3 hPa Calm     78% 0 mm 0.0 W/m2 SCT
01:22 -9.3 °C -12.6 °C 1029.7 hPa Calm     77% 0 mm 0.0 W/m2 SCT
01:25 -9.3 °C -12.6 °C 1029.7 hPa ENE 1.9 km/h 1.9 km/h 77% 0 mm 0.0 W/m2 SCT
01:30 -9.3 °C -12.6 °C 1029.7 hPa Calm     77% 0 mm 0.0 W/m2 SCT
01:33 -9.2 °C -12.5 °C 1029.7 hPa Calm     77% 0 mm 0.0 W/m2 SCT
01:38 -9.2 °C -12.4 °C 1029.7 hPa Calm     77% 0 mm 0.0 W/m2 SCT
01:39 -9.2 °C -12.4 °C 1029.7 hPa Calm     77% 0 mm 0.0 W/m2 SCT
01:41 -9.2 °C -12.4 °C 1029.7 hPa Calm     77% 0 mm 0.0 W/m2 SCT
01:46 -9.2 °C -12.4 °C 1029.7 hPa Calm     77% 0 mm 0.0 W/m2 SCT
01:47 -9.1 °C -12.2 °C 1029.7 hPa Calm     78% 0 mm 0.0 W/m2 SCT
01:49 -9.1 °C -12.2 °C 1029.7 hPa Calm     78% 0 mm 0.0 W/m2 SCT
01:54 -9 °C -12 °C 1029.3 hPa Calm     79% 0 mm 0.0 W/m2 SCT
02:01 -8.9 °C -11.9 °C 1029.3 hPa ENE 3.7 km/h 3.7 km/h 79% 0 mm 0.0 W/m2 OVC
02:02 -8.9 °C -11.9 °C 1029.3 hPa ENE 3.7 km/h 3.7 km/h 79% 0 mm 0.0 W/m2 OVC
02:07 -8.9 °C -11.8 °C 1029.3 hPa Calm     80% 0 mm 0.0 W/m2 OVC
02:12 -8.9 °C -11.6 °C 1029.3 hPa ENE 1.9 km/h 1.9 km/h 81% 0 mm 0.0 W/m2 OVC
02:13 -8.9 °C -11.6 °C 1029.3 hPa ENE 3.7 km/h 3.7 km/h 81% 0 mm 0.0 W/m2 OVC
02:19 -8.9 °C -11.6 °C 1029.3 hPa ENE 1.9 km/h 1.9 km/h 81% 0 mm 0.0 W/m2 OVC
02:24 -8.9 °C -11.7 °C 1029.3 hPa Calm     80% 0 mm 0.0 W/m2 OVC
02:27 -8.9 °C -11.9 °C 1029.3 hPa Calm     79% 0 mm 0.0 W/m2 OVC
02:29 -8.8 °C -11.8 °C 1029.3 hPa Calm     79% 0 mm 0.0 W/m2 OVC
02:34 -8.7 °C -11.9 °C 1029.3 hPa ENE 3.7 km/h 3.7 km/h 78% 0 mm 0.0 W/m2 OVC
02:36 -8.7 °C -12 °C 1029.3 hPa ENE 1.9 km/h   77% 0 mm 0.0 W/m2 OVC
02:37 -8.7 °C -12.2 °C 1029.3 hPa Calm     76% 0 mm 0.0 W/m2 OVC
02:42 -8.6 °C -12.1 °C 1029.3 hPa ENE 1.9 km/h 1.9 km/h 76% 0 mm 0.0 W/m2 OVC
02:47 -8.6 °C -11.9 °C 1029.7 hPa ENE 3.2 km/h 3.2 km/h 77% 0 mm 0.0 W/m2 OVC
02:48 -8.6 °C -11.9 °C 1029.7 hPa ENE 3.7 km/h 3.7 km/h 77% 0 mm 0.0 W/m2 OVC
02:53 -8.5 °C -12 °C 1029.7 hPa ENE 3.7 km/h 3.7 km/h 76% 0 mm 0.0 W/m2 OVC
02:54 -8.4 °C -12.1 °C 1029.7 hPa ENE 3.7 km/h 3.7 km/h 75% 0 mm 0.0 W/m2 OVC
02:59 -8.4 °C -12.3 °C 1029.7 hPa ENE 3.7 km/h 3.7 km/h 74% 0 mm 0.0 W/m2 OVC
03:02 -8.4 °C -11.9 °C 1029.7 hPa ENE 3.7 km/h 3.7 km/h 76% 0 mm 0.0 W/m2 OVC
03:05 -8.4 °C -11.9 °C 1030 hPa ENE 5.6 km/h 5.6 km/h 76% 0 mm 0.0 W/m2 OVC
03:11 -8.4 °C -12.1 °C 1030 hPa NW 5.6 km/h 5.6 km/h 75% 0 mm 0.0 W/m2 OVC
03:15 -8.3 °C -12.2 °C 1030 hPa NW 6.4 km/h 6.4 km/h 74% 0 mm 0.0 W/m2 OVC
03:18 -8.4 °C -12.4 °C 1030 hPa NW 3.7 km/h 3.7 km/h 73% 0 mm 0.0 W/m2 OVC
03:23 -8.3 °C -12.3 °C 1029.7 hPa NW 3.2 km/h 3.2 km/h 73% 0 mm 0.0 W/m2 OVC
03:24 -8.3 °C -12.3 °C 1029.7 hPa NW 3.7 km/h 3.7 km/h 73% 0 mm 0.0 W/m2 OVC
03:29 -8.3 °C -12.5 °C 1029.7 hPa NW 1.9 km/h 1.9 km/h 72% 0 mm 0.0 W/m2 OVC
03:36 -8.3 °C -12.4 °C 1029.3 hPa NW 1.9 km/h 1.9 km/h 72% 0 mm 0.0 W/m2 OVC
03:37 -8.3 °C -12.6 °C 1029.3 hPa NW 3.7 km/h 3.7 km/h 71% 0 mm 0.0 W/m2 OVC
03:42 -8.2 °C -12.4 °C 1029.3 hPa NW 3.7 km/h 3.7 km/h 72% 0 mm 0.0 W/m2 OVC
03:43 -8.2 °C -12.4 °C 1029.3 hPa NW 3.7 km/h 3.7 km/h 72% 0 mm 0.0 W/m2 OVC
03:48 -8.2 °C -12.2 °C 1029 hPa NW 3.7 km/h 3.7 km/h 73% 0 mm 0.0 W/m2 OVC
03:49 -8.2 °C -12.2 °C 1029 hPa NW 3.7 km/h 3.7 km/h 73% 0 mm 0.0 W/m2 OVC
03:54 -8.2 °C -12.2 °C 1029 hPa Calm     73% 0 mm 0.0 W/m2 OVC
03:55 -8.2 °C -12.2 °C 1029 hPa Calm     73% 0 mm 0.0 W/m2 OVC
04:00 -8.2 °C -12.2 °C 1029 hPa NW 5.6 km/h 5.6 km/h 73% 0 mm 0.0 W/m2 OVC
04:05 -8.2 °C -12.2 °C 1029.3 hPa NW 5.6 km/h 5.6 km/h 73% 0 mm 0.0 W/m2 OVC
04:06 -8.2 °C -12.2 °C 1029.3 hPa NW 5.6 km/h 5.6 km/h 73% 0 mm 0.0 W/m2 OVC
04:07 -8.1 °C -12.1 °C 1029.3 hPa NW 3.7 km/h 3.7 km/h 73% 0 mm 0.0 W/m2 OVC
04:13 -8.1 °C -12.1 °C 1029.3 hPa NW 3.7 km/h 3.7 km/h 73% 0 mm 0.0 W/m2 OVC
04:15 -8.1 °C -12.1 °C 1029.3 hPa NW 3.7 km/h 3.7 km/h 73% 0 mm 0.0 W/m2 OVC
04:20 -8.1 °C -12.1 °C 1029.3 hPa WNW 3.2 km/h 8 km/h 73% 0 mm 0.0 W/m2 OVC
04:21 -8.1 °C -12.1 °C 1029.3 hPa WNW 5.6 km/h 5.6 km/h 73% 0 mm 0.0 W/m2 OVC
04:25 -8.1 °C -12.1 °C 1029.3 hPa WNW 5.6 km/h 5.6 km/h 73% 0 mm 0.0 W/m2 OVC
04:27 -8.1 °C -12.1 °C 1029 hPa WNW 5.6 km/h 5.6 km/h 73% 0 mm 0.0 W/m2 OVC
04:32 -8.1 °C -12.1 °C 1029 hPa WNW 1.9 km/h   73% 0 mm 0.0 W/m2 OVC
04:33 -8.1 °C -12.1 °C 1029 hPa WNW 1.9 km/h 1.9 km/h 73% 0 mm 0.0 W/m2 OVC
04:38 -8.1 °C -12.1 °C 1029 hPa WNW 3.7 km/h 3.7 km/h 73% 0 mm 0.0 W/m2 OVC
04:40 -8.1 °C -12.1 °C 1029 hPa WNW 3.7 km/h 3.7 km/h 73% 0 mm 0.0 W/m2 OVC
04:42 -8.1 °C -12.1 °C 1029 hPa WNW 1.9 km/h 1.9 km/h 73% 0 mm 0.0 W/m2 OVC
04:46 -8.1 °C -12.1 °C 1029 hPa WNW 3.7 km/h   73% 0 mm 0.0 W/m2 OVC
04:50 -8.1 °C -12.3 °C 1028.7 hPa WNW 1.9 km/h 1.9 km/h 72% 0 mm 0.0 W/m2 OVC
04:51 -8.1 °C -12.3 °C 1028.7 hPa WNW 1.9 km/h 1.9 km/h 72% 0 mm 0.0 W/m2 OVC
04:56 -8.1 °C -12.1 °C 1029 hPa WNW 3.7 km/h 3.7 km/h 73% 0 mm 0.0 W/m2 OVC
05:02 -8.1 °C -12.1 °C 1029 hPa WNW 3.7 km/h 3.7 km/h 73% 0 mm 0.0 W/m2 OVC
05:03 -8.1 °C -12.1 °C 1029 hPa WNW 1.9 km/h   73% 0 mm 0.0 W/m2 OVC
05:08 -8.2 °C -12.2 °C 1028.7 hPa WNW 1.9 km/h   73% 0 mm 0.0 W/m2 OVC
05:13 -8.2 °C -12.2 °C 1028.7 hPa Calm     73% 0 mm 0.0 W/m2 OVC
05:15 -8.2 °C -12 °C 1028.7 hPa Calm     74% 0 mm 0.0 W/m2 OVC
05:16 -8.2 °C -12 °C 1028.7 hPa Calm     74% 0 mm 0.0 W/m2 OVC
05:21 -8.2 °C -12.2 °C 1028.3 hPa Calm     73% 0 mm 0.0 W/m2 OVC
05:22 -8.1 °C -11.9 °C 1028.3 hPa Calm   0.3 km/h 74% 0 mm 0.0 W/m2 OVC
05:27 -8.1 °C -11.9 °C 1028.3 hPa Calm     74% 0 mm 0.0 W/m2 OVC
05:32 -8.1 °C -11.9 °C 1028.3 hPa West 1.9 km/h   74% 0 mm 0.0 W/m2 OVC
05:37 -8.1 °C -11.9 °C 1028.3 hPa West 5.6 km/h 5.6 km/h 74% 0 mm 0.0 W/m2 OVC
05:38 -8.1 °C -11.9 °C 1028.3 hPa West 5.6 km/h 5.6 km/h 74% 0 mm 0.0 W/m2 OVC
05:43 -8.1 °C -11.9 °C 1028.3 hPa West 3.2 km/h 3.2 km/h 74% 0 mm 0.0 W/m2 OVC
05:44 -8.1 °C -12.1 °C 1028.3 hPa West 5.6 km/h 5.6 km/h 73% 0 mm 0.0 W/m2 OVC
05:47 -8.1 °C -11.9 °C 1028.3 hPa West 1.9 km/h 1.9 km/h 74% 0 mm 0.0 W/m2 OVC
05:52 -8.2 °C -12 °C 1028 hPa SW 6.4 km/h 6.4 km/h 74% 0 mm 0.0 W/m2 OVC
05:53 -8.1 °C -12.1 °C 1028 hPa SW 5.6 km/h 5.6 km/h 73% 0 mm 0.0 W/m2 OVC
05:57 -8.1 °C -11.9 °C 1028 hPa SW 3.7 km/h 3.7 km/h 74% 0 mm 0.0 W/m2 OVC
05:58 -8.1 °C -11.9 °C 1028 hPa SW 3.7 km/h 3.7 km/h 74% 0 mm 0.0 W/m2 OVC
06:03 -8.1 °C -11.9 °C 1027.7 hPa SW 5.6 km/h 5.6 km/h 74% 0 mm 0.0 W/m2 BKN
06:05 -8.1 °C -11.9 °C 1027.7 hPa SW 3.2 km/h 8 km/h 74% 0 mm 0.0 W/m2 BKN
06:10 -8.1 °C -12.1 °C 1027.7 hPa SSW 3.7 km/h 3.7 km/h 73% 0 mm 0.0 W/m2 BKN
06:12 -8.1 °C -12.1 °C 1027.7 hPa SSW 3.7 km/h 3.7 km/h 73% 0 mm 0.0 W/m2 BKN
06:17 -8.1 °C -12.3 °C 1027.7 hPa SSW 4.8 km/h 4.8 km/h 72% 0 mm 0.0 W/m2 BKN
06:18 -8.1 °C -12.3 °C 1027.7 hPa SSW 5.6 km/h 5.6 km/h 72% 0 mm 0.0 W/m2 BKN
06:23 -8.1 °C -12.2 °C 1027.7 hPa SSW 3.7 km/h 3.7 km/h 72% 0 mm 0.0 W/m2 BKN
06:24 -8.1 °C -12.2 °C 1027.7 hPa SSW 5.6 km/h 5.6 km/h 72% 0 mm 0.0 W/m2 BKN
06:29 -8 °C -12.2 °C 1027.3 hPa SSW 3.7 km/h   72% 0 mm 0.0 W/m2 BKN
06:31 -8 °C -12.2 °C 1027.3 hPa SSW 5.6 km/h 5.6 km/h 72% 0 mm 0.0 W/m2 BKN
06:36 -7.9 °C -12.1 °C 1027.3 hPa SSW 5.6 km/h 5.6 km/h 72% 0 mm 0.0 W/m2 BKN
06:39 -7.9 °C -12.1 °C 1027.7 hPa SSW 5.6 km/h 5.6 km/h 72% 0 mm 0.0 W/m2 BKN
06:41 -7.9 °C -12.1 °C 1027.7 hPa SSW 5.6 km/h 5.6 km/h 72% 0 mm 0.0 W/m2 BKN
06:44 -7.9 °C -12.1 °C 1027.7 hPa SSW 3.7 km/h 3.7 km/h 72% 0 mm 0.0 W/m2 BKN
06:46 -7.9 °C -12.1 °C 1027.7 hPa SSW 3.7 km/h 3.7 km/h 72% 0 mm 0.0 W/m2 BKN
06:51 -7.9 °C -12.1 °C 1027.3 hPa SSW 3.7 km/h 3.7 km/h 72% 0 mm 0.0 W/m2 BKN
06:52 -7.9 °C -12.1 °C 1027.3 hPa SSW 3.7 km/h 3.7 km/h 72% 0 mm 0.0 W/m2 BKN
06:57 -7.9 °C -12.3 °C 1027.3 hPa SSW 7.4 km/h 7.4 km/h 71% 0 mm 0.0 W/m2 BKN
06:58 -7.9 °C -12.3 °C 1027.3 hPa SSW 8 km/h 8 km/h 71% 0 mm 0.0 W/m2 BKN
07:03 -7.9 °C -12.2 °C 1027.3 hPa SW 5.6 km/h 5.6 km/h 71% 0 mm 0.0 W/m2 OVC
07:08 -7.8 °C -12 °C 1027.3 hPa SW 3.7 km/h 3.7 km/h 72% 0 mm 0.0 W/m2 OVC
07:09 -7.8 °C -12 °C 1027.3 hPa SW 3.7 km/h 3.7 km/h 72% 0 mm 0.0 W/m2 OVC
07:14 -7.8 °C -12.3 °C 1027.3 hPa SW 7.4 km/h 7.4 km/h 70% 0 mm 0.0 W/m2 OVC
07:16 -7.8 °C -12.1 °C 1027.3 hPa SW 5.6 km/h 5.6 km/h 71% 0 mm 0.0 W/m2 OVC
07:20 -7.8 °C -12.3 °C 1027 hPa SW 9.7 km/h 9.7 km/h 70% 0 mm 0.0 W/m2 OVC
07:22 -7.8 °C -12.5 °C 1027.3 hPa SW 9.3 km/h 9.3 km/h 69% 0 mm 5.0 W/m2 OVC
07:27 -7.8 °C -12.3 °C 1027.3 hPa SW 7.4 km/h 7.4 km/h 70% 0 mm 7.0 W/m2 OVC
07:32 -7.7 °C -12.2 °C 1027.3 hPa SW 5.6 km/h 5.6 km/h 70% 0 mm 11.0 W/m2 OVC
07:33 -7.7 °C -12.2 °C 1027.3 hPa SW 5.6 km/h 5.6 km/h 70% 0 mm 11.0 W/m2 OVC
07:38 -7.6 °C -11.9 °C 1027.3 hPa SW 5.6 km/h 5.6 km/h 71% 0 mm 12.0 W/m2 OVC
07:43 -7.6 °C -12.1 °C 1027.3 hPa SW 5.6 km/h 5.6 km/h 70% 0 mm 16.0 W/m2 OVC
07:48 -7.5 °C -12.1 °C 1027.3 hPa SW 4.8 km/h 4.8 km/h 70% 0 mm 26.0 W/m2 OVC
07:49 -7.5 °C -12.1 °C 1027.3 hPa SW 5.6 km/h 5.6 km/h 70% 0 mm 28.0 W/m2 OVC
07:54 -7.4 °C -12 °C 1027.3 hPa SW 1.9 km/h 1.9 km/h 70% 0 mm 37.0 W/m2 OVC
07:55 -7.4 °C -12 °C 1027.3 hPa SW 1.9 km/h 1.9 km/h 70% 0 mm 39.0 W/m2 OVC
07:56 -7.4 °C -11.9 °C 1027.3 hPa SW 1.9 km/h 1.9 km/h 70% 0 mm 42.0 W/m2 OVC
08:03 -7.3 °C -12 °C 1027.3 hPa WSW 5.6 km/h 5.6 km/h 69% 0 mm 39.0 W/m2 BKN
08:09 -7.3 °C -12 °C 1027.3 hPa WSW 5.6 km/h 5.6 km/h 69% 0 mm 37.0 W/m2 BKN
08:16 -7.2 °C -12.3 °C 1027.3 hPa SW 8 km/h 8 km/h 67% 0 mm 47.0 W/m2 BKN
08:22 -7.2 °C -12.1 °C 1027.3 hPa WSW 5.6 km/h 5.6 km/h 68% 0 mm 56.0 W/m2 BKN
08:27 -7.1 °C -12.2 °C 1027.3 hPa WSW 3.7 km/h 3.7 km/h 67% 0 mm 58.0 W/m2 BKN
08:28 -7.1 °C -12.2 °C 1027.3 hPa SW 6.4 km/h 6.4 km/h 67% 0 mm 67.0 W/m2 BKN
08:29 -7.1 °C -12.2 °C 1027.3 hPa SW 5.6 km/h 5.6 km/h 67% 0 mm 76.0 W/m2 BKN
08:34 -6.9 °C -12.2 °C 1027.3 hPa SW 8 km/h 8 km/h 66% 0 mm 113.0 W/m2 BKN
08:36 -6.9 °C -12.2 °C 1027.3 hPa SW 7.4 km/h 7.4 km/h 66% 0 mm 116.0 W/m2 BKN
08:42 -6.7 °C -12.2 °C 1027.3 hPa WSW 9.7 km/h 9.7 km/h 65% 0 mm 137.0 W/m2 BKN
08:44 -6.6 °C -12.1 °C 1027.7 hPa WSW 9.3 km/h 9.3 km/h 65% 0 mm 151.0 W/m2 BKN
08:48 -6.4 °C -12.2 °C 1027.3 hPa WSW 3.7 km/h 3.7 km/h 64% 0 mm 197.0 W/m2 BKN
08:53 -6.2 °C -12.1 °C 1027.3 hPa WSW 5.6 km/h 5.6 km/h 63% 0 mm 192.0 W/m2 BKN
08:55 -6.1 °C -12.2 °C 1027.3 hPa SW 5.6 km/h 5.6 km/h 62% 0 mm 148.0 W/m2 BKN
08:58 -6 °C -12.3 °C 1027.3 hPa WSW 11.1 km/h 11.1 km/h 61% 0 mm 144.0 W/m2 BKN
09:01 -5.9 °C -12.3 °C 1027.3 hPa WSW 5.6 km/h 5.6 km/h 61% 0 mm 230.0 W/m2 OVC
09:05 -5.7 °C -12.3 °C 1027.3 hPa WSW 8 km/h 8 km/h 60% 0 mm 156.0 W/m2 OVC
09:07 -5.7 °C -12.4 °C 1027.3 hPa SW 7.4 km/h 7.4 km/h 59% 0 mm 111.0 W/m2 OVC
09:12 -5.8 °C -12.3 °C 1027.3 hPa SW 5.6 km/h 5.6 km/h 60% 0 mm 137.0 W/m2 OVC
09:13 -5.8 °C -12.5 °C 1027.3 hPa SW 5.6 km/h 5.6 km/h 59% 0 mm 144.0 W/m2 OVC
09:16 -5.8 °C -12.5 °C 1027.3 hPa SW 5.6 km/h 5.6 km/h 59% 0 mm 113.0 W/m2 OVC
09:19 -5.7 °C -12.4 °C 1027.3 hPa SW 6.4 km/h 6.4 km/h 59% 0 mm 77.0 W/m2 OVC
09:24 -5.7 °C -12.6 °C 1027.3 hPa SSW 5.6 km/h 5.6 km/h 58% 0 mm 111.0 W/m2 OVC
09:29 -5.6 °C -12.5 °C 1027.3 hPa SW 7.4 km/h 7.4 km/h 58% 0 mm 76.0 W/m2 OVC
09:31 -5.5 °C -12.4 °C 1027.3 hPa SW 5.6 km/h 5.6 km/h 58% 0 mm 84.0 W/m2 OVC
09:37 -5.5 °C -12.4 °C 1027 hPa WSW 5.6 km/h 5.6 km/h 58% 0 mm 121.0 W/m2 OVC
09:42 -5.3 °C -12.3 °C 1027 hPa SW 9.3 km/h 9.3 km/h 58% 0 mm 141.0 W/m2 OVC
09:44 -5.3 °C -12.5 °C 1027 hPa SW 6.4 km/h 6.4 km/h 57% 0 mm 130.0 W/m2 OVC
09:49 -5.2 °C -12.6 °C 1027 hPa SW 5.6 km/h 5.6 km/h 56% 0 mm 135.0 W/m2 OVC
09:50 -5.1 °C -12.6 °C 1027 hPa SW 5.6 km/h 5.6 km/h 56% 0 mm 139.0 W/m2 OVC
09:55 -5.1 °C -12.6 °C 1027 hPa West 6.4 km/h 6.4 km/h 56% 0 mm 134.0 W/m2 OVC
10:01 -5.1 °C -12.7 °C 1027 hPa SW 7.4 km/h 7.4 km/h 55% 0 mm 141.0 W/m2 SCT
10:06 -5 °C -12.9 °C 1027 hPa SW 7.4 km/h 7.4 km/h 54% 0 mm 172.0 W/m2 SCT
10:08 -4.9 °C -12.8 °C 1027 hPa SW 5.6 km/h 5.6 km/h 54% 0 mm 174.0 W/m2 SCT
10:13 -4.8 °C -12.7 °C 1027 hPa WSW 5.6 km/h 5.6 km/h 54% 0 mm 172.0 W/m2 SCT
10:15 -4.8 °C -12.7 °C 1027 hPa WSW 6.4 km/h 6.4 km/h 54% 0 mm 174.0 W/m2 SCT
10:20 -4.7 °C -13.1 °C 1026.6 hPa West 9.7 km/h 9.7 km/h 52% 0 mm 200.0 W/m2 SCT
10:22 -4.7 °C -13.1 °C 1026.6 hPa West 6.4 km/h 6.4 km/h 52% 0 mm 204.0 W/m2 SCT
10:24 -4.6 °C -12.8 °C 1026.6 hPa West 9.3 km/h 10 km/h 53% 0 mm 213.0 W/m2 SCT
10:29 -4.4 °C -12.6 °C 1026.6 hPa WSW 11.3 km/h 11.3 km/h 53% 0 mm 225.0 W/m2 SCT
10:30 -4.4 °C -12.8 °C 1026.6 hPa WSW 11.1 km/h 11.1 km/h 52% 0 mm 223.0 W/m2 SCT
10:35 -4.4 °C -12.8 °C 1026.3 hPa WSW 5.6 km/h 5.6 km/h 52% 0 mm 213.0 W/m2 SCT
10:36 -4.4 °C -12.8 °C 1026.3 hPa WSW 6.4 km/h 6.4 km/h 52% 0 mm 220.0 W/m2 SCT
10:41 -4.2 °C -12.6 °C 1026.3 hPa SW 8 km/h 8 km/h 52% 0 mm 260.0 W/m2 SCT
10:42 -4.2 °C -12.6 °C 1026.3 hPa West 9.7 km/h 9.7 km/h 52% 0 mm 271.0 W/m2 SCT
10:46 -3.9 °C -12.6 °C 1026.3 hPa SSW 5.6 km/h 5.6 km/h 51% 0 mm 193.0 W/m2 SCT
10:47 -3.9 °C -12.6 °C 1026.3 hPa SSW 5.6 km/h 5.6 km/h 51% 0 mm 181.0 W/m2 SCT
10:52 -3.8 °C -12.4 °C 1026.3 hPa West 13 km/h 13 km/h 51% 0 mm 367.0 W/m2 SCT
10:53 -3.7 °C -12.1 °C 1026 hPa West 6.4 km/h 6.4 km/h 52% 0 mm 308.0 W/m2 SCT
10:58 -3.3 °C -12.1 °C 1026 hPa WSW 7.4 km/h 7.4 km/h 51% 0 mm 367.0 W/m2 SCT
11:00 -3.3 °C -12 °C 1025.6 hPa West 12.9 km/h 12.9 km/h 51% 0 mm 348.0 W/m2 SCT
11:03 -3.2 °C -12.1 °C 1025.6 hPa WSW 7.4 km/h 7.4 km/h 50% 0 mm 388.0 W/m2 CLR
11:08 -3 °C -12 °C 1025.3 hPa WSW 14.8 km/h 14.8 km/h 50% 0 mm 436.0 W/m2 CLR
11:13 -2.7 °C -12 °C 1025.3 hPa West 18.5 km/h 18.5 km/h 49% 0 mm 508.0 W/m2 CLR
11:14 -2.7 °C -11.9 °C 1025.3 hPa West 14.8 km/h 14.8 km/h 49% 0 mm 508.0 W/m2 CLR
11:19 -2.6 °C -11.9 °C 1024.9 hPa WSW 13 km/h 13 km/h 49% 0 mm 450.0 W/m2 CLR
11:20 -2.6 °C -11.9 °C 1024.9 hPa WNW 11.1 km/h 11.1 km/h 49% 0 mm 489.0 W/m2 CLR
11:26 -2.3 °C -11.6 °C 1024.9 hPa West 14.8 km/h 14.8 km/h 49% 0 mm 517.0 W/m2 CLR
11:31 -2.3 °C -11.9 °C 1024.9 hPa West 14.8 km/h 14.8 km/h 48% 0 mm 519.0 W/m2 CLR
11:36 -2 °C -11.6 °C 1024.6 hPa WSW 9.7 km/h 9.7 km/h 48% 0 mm 522.0 W/m2 CLR
11:41 -1.9 °C -11.5 °C 1024.6 hPa WSW 17.7 km/h 17.7 km/h 48% 0 mm 524.0 W/m2 CLR
11:42 -2 °C -11.8 °C 1024.6 hPa WSW 20.4 km/h 20.4 km/h 47% 0 mm 524.0 W/m2 CLR
11:48 -1.9 °C -11.7 °C 1024.3 hPa West 18.5 km/h 18.5 km/h 47% 0 mm 527.0 W/m2 CLR
11:49 -1.7 °C -11.8 °C 1024.3 hPa WSW 22.2 km/h 22.2 km/h 46% 0 mm 526.0 W/m2 CLR
11:54 -1.7 °C -12.3 °C 1024.3 hPa West 16.7 km/h 16.7 km/h 44% 0 mm 526.0 W/m2 CLR
11:58 -1.6 °C -11.9 °C 1023.9 hPa West 13 km/h 13 km/h 45% 0 mm 526.0 W/m2 CLR
12:03 -1.3 °C -11.7 °C 1023.6 hPa WSW 11.1 km/h 11.1 km/h 45% 0 mm 527.0 W/m2 FEW
12:04 -1.3 °C -11.7 °C 1023.6 hPa WSW 11.1 km/h 11.1 km/h 45% 0 mm 527.0 W/m2 FEW
12:09 -0.9 °C -12 °C 1023.6 hPa West 13 km/h 13 km/h 43% 0 mm 527.0 W/m2 FEW
12:10 -0.9 °C -12 °C 1023.6 hPa West 9.3 km/h 9.3 km/h 43% 0 mm 527.0 W/m2 FEW
12:15 -0.9 °C -12.3 °C 1023.6 hPa WSW 14.8 km/h 14.8 km/h 42% 0 mm 526.0 W/m2 FEW
12:17 -0.9 °C -12.6 °C 1023.6 hPa West 18.5 km/h 18.5 km/h 41% 0 mm 524.0 W/m2 FEW
12:23 -0.9 °C -12.2 °C 1023.2 hPa WSW 9.3 km/h 9.3 km/h 42% 0 mm 522.0 W/m2 FEW
12:26 -0.8 °C -12.4 °C 1023.2 hPa SW 7.4 km/h 7.4 km/h 41% 0 mm 522.0 W/m2 FEW
12:29 -0.8 °C -12.4 °C 1023.2 hPa West 16.7 km/h 16.7 km/h 41% 0 mm 520.0 W/m2 FEW
12:32 -0.7 °C -12.4 °C 1023.2 hPa West 13 km/h 13 km/h 41% 0 mm 519.0 W/m2 FEW
12:37 -0.3 °C -12.3 °C 1023.2 hPa WNW 13 km/h 13 km/h 40% 0 mm 517.0 W/m2 FEW
12:39 -0.2 °C -12.2 °C 1023.2 hPa West 14.8 km/h 14.8 km/h 40% 0 mm 513.0 W/m2 FEW
12:44 -0.2 °C -12.6 °C 1023.2 hPa West 16.7 km/h 16.7 km/h 39% 0 mm 510.0 W/m2 FEW
12:45 -0.3 °C -12.6 °C 1023.2 hPa West 18.5 km/h 18.5 km/h 39% 0 mm 510.0 W/m2 FEW
12:50 -0.2 °C -12.8 °C 1023.2 hPa West 18.5 km/h 18.5 km/h 38% 0 mm 506.0 W/m2 FEW
12:51 -0.3 °C -12.9 °C 1023.2 hPa West 18.5 km/h 18.5 km/h 38% 0 mm 506.0 W/m2 FEW
12:56 -0.4 °C -12.7 °C 1023.2 hPa WSW 18.5 km/h 18.5 km/h 39% 0 mm 501.0 W/m2 FEW
12:57 -0.4 °C -12.7 °C 1023.2 hPa West 18.5 km/h 18.5 km/h 39% 0 mm 499.0 W/m2 FEW
13:02 -0.4 °C -12.7 °C 1022.9 hPa West 18.5 km/h 18.5 km/h 39% 0 mm 494.0 W/m2 CLR
13:05 -0.5 °C -12.8 °C 1023.2 hPa West 20.4 km/h 20.4 km/h 39% 0 mm 490.0 W/m2 CLR
13:08 -0.6 °C -12.9 °C 1022.9 hPa West 18.5 km/h 18.5 km/h 39% 0 mm 487.0 W/m2 CLR
13:10 -0.5 °C -12.8 °C 1022.9 hPa West 14.8 km/h 14.8 km/h 39% 0 mm 485.0 W/m2 CLR
13:15 -0.1 °C -11.8 °C 1022.9 hPa WNW 18.5 km/h 18.5 km/h 41% 0 mm 478.0 W/m2 CLR
13:17 0.1 °C -11.9 °C 1022.9 hPa West 20.4 km/h 20.4 km/h 40% 0 mm 476.0 W/m2 CLR
13:22 -0.1 °C -12.4 °C 1022.9 hPa WNW 16.7 km/h 16.7 km/h 39% 0 mm 471.0 W/m2 CLR
13:27 0 °C -12.3 °C 1022.9 hPa West 13 km/h 13 km/h 39% 0 mm 462.0 W/m2 CLR
13:28 0 °C -12.3 °C 1022.9 hPa West 13 km/h 13 km/h 39% 0 mm 462.0 W/m2 CLR
13:33 0.1 °C -12.3 °C 1022.9 hPa West 13 km/h 13 km/h 39% 0 mm 455.0 W/m2 CLR
13:37 0.1 °C -11.9 °C 1022.9 hPa West 18.5 km/h 18.5 km/h 40% 0 mm 448.0 W/m2 CLR
13:42 0.1 °C -11.9 °C 1022.9 hPa West 13 km/h 13 km/h 40% 0 mm 439.0 W/m2 CLR
13:47 0 °C -12 °C 1022.9 hPa WSW 22.5 km/h 22.5 km/h 40% 0 mm 431.0 W/m2 CLR
13:48 -0.1 °C -12.1 °C 1022.9 hPa WSW 22.2 km/h 22.2 km/h 40% 0 mm 427.0 W/m2 CLR
13:53 -0.2 °C -11.9 °C 1022.9 hPa WNW 13 km/h 13 km/h 41% 0 mm 420.0 W/m2 CLR
13:55 -0.2 °C -11.8 °C 1022.9 hPa WSW 13 km/h 13 km/h 41% 0 mm 417.0 W/m2 CLR
13:58 -0.2 °C -11.9 °C 1022.9 hPa WSW 1.9 km/h 1.9 km/h 41% 0 mm 411.0 W/m2 CLR
14:02 0.1 °C -11.3 °C 1022.6 hPa West 11.1 km/h 11.1 km/h 42% 0 mm 403.0 W/m2 CLR
14:07 0.3 °C -11.4 °C 1022.6 hPa West 13 km/h 13 km/h 41% 0 mm 392.0 W/m2 CLR
14:12 0.5 °C -11.6 °C 1022.6 hPa WSW 11.1 km/h 11.1 km/h 40% 0 mm 383.0 W/m2 CLR
14:17 0.6 °C -11.4 °C 1022.6 hPa WSW 16.1 km/h 16.1 km/h 40% 0 mm 371.0 W/m2 CLR
14:22 0.3 °C -11.8 °C 1022.6 hPa West 16.7 km/h 16.7 km/h 40% 0 mm 360.0 W/m2 CLR
14:23 0.3 °C -11.8 °C 1022.6 hPa NW 14.8 km/h 14.8 km/h 40% 0 mm 359.0 W/m2 CLR
14:25 0.4 °C -11.3 °C 1022.6 hPa WNW 18.5 km/h 18.5 km/h 41% 0 mm 350.0 W/m2 CLR
14:29 0.3 °C -11.8 °C 1022.6 hPa NW 18.5 km/h 18.5 km/h 40% 0 mm 330.0 W/m2 CLR
14:34 0.3 °C -11.8 °C 1022.6 hPa West 18.5 km/h 18.5 km/h 40% 0 mm 304.0 W/m2 CLR
14:36 0.3 °C -11.8 °C 1022.9 hPa WNW 18.5 km/h 18.5 km/h 40% 0 mm 306.0 W/m2 CLR
14:40 0.3 °C -11.8 °C 1022.6 hPa West 17.7 km/h 17.7 km/h 40% 0 mm 285.0 W/m2 CLR
14:45 0.1 °C -11.6 °C 1022.6 hPa West 14.5 km/h 14.5 km/h 41% 0 mm 165.0 W/m2 CLR
14:50 0 °C -11.7 °C 1022.9 hPa WNW 13 km/h 13 km/h 41% 0 mm 192.0 W/m2 CLR
14:51 0 °C -11.4 °C 1022.9 hPa West 13 km/h 13 km/h 42% 0 mm 135.0 W/m2 CLR
14:56 0.1 °C -11.3 °C 1022.9 hPa WNW 9.3 km/h 9.3 km/h 42% 0 mm 72.0 W/m2 CLR
15:01 0 °C -11.4 °C 1022.9 hPa WSW 13 km/h 13 km/h 42% 0 mm 104.0 W/m2 CLR
15:06 -0.1 °C -11.4 °C 1022.9 hPa WNW 16.7 km/h 16.7 km/h 42% 0 mm 65.0 W/m2 CLR
15:08 -0.1 °C -11.2 °C 1022.9 hPa NW 18.5 km/h 18.5 km/h 43% 0 mm 90.0 W/m2 CLR
15:13 0 °C -11.4 °C 1022.9 hPa WNW 18.5 km/h 18.5 km/h 42% 0 mm 100.0 W/m2 CLR
15:14 0 °C -11.4 °C 1022.9 hPa WSW 13 km/h 13 km/h 42% 0 mm 116.0 W/m2 CLR
15:19 0 °C -11.1 °C 1022.9 hPa West 16.7 km/h 16.7 km/h 43% 0 mm 165.0 W/m2 CLR
15:21 0 °C -11.1 °C 1022.9 hPa West 11.1 km/h 11.1 km/h 43% 0 mm 156.0 W/m2 CLR
15:22 0.1 °C -11.1 °C 1022.9 hPa West 14.8 km/h 14.8 km/h 43% 0 mm 146.0 W/m2 CLR
15:26 0 °C -11.1 °C 1022.9 hPa WNW 14.8 km/h 14.8 km/h 43% 0 mm 149.0 W/m2 CLR
15:27 0 °C -11.1 °C 1022.9 hPa West 14.8 km/h 14.8 km/h 43% 0 mm 120.0 W/m2 CLR
15:32 -0.1 °C -11.2 °C 1022.9 hPa West 14.8 km/h 14.8 km/h 43% 0 mm 37.0 W/m2 CLR
15:33 -0.1 °C -11.2 °C 1022.9 hPa West 13 km/h 13 km/h 43% 0 mm 37.0 W/m2 CLR
15:35 -0.2 °C -11.3 °C 1022.9 hPa West 16.7 km/h 16.7 km/h 43% 0 mm 35.0 W/m2 CLR
15:38 -0.2 °C -11 °C 1022.9 hPa West 9.3 km/h 9.3 km/h 44% 0 mm 51.0 W/m2 CLR
15:40 -0.2 °C -11 °C 1022.9 hPa WNW 14.8 km/h 14.8 km/h 44% 0 mm 56.0 W/m2 CLR
15:43 -0.3 °C -11.4 °C 1023.2 hPa WNW 18.5 km/h 18.5 km/h 43% 0 mm 33.0 W/m2 CLR
15:45 -0.3 °C -11.1 °C 1023.2 hPa NW 18.5 km/h 18.5 km/h 44% 0 mm 54.0 W/m2 CLR
15:48 -0.4 °C -11.2 °C 1023.2 hPa WNW 16.7 km/h 16.7 km/h 44% 0 mm 88.0 W/m2 CLR
15:53 -0.4 °C -11.2 °C 1022.9 hPa WNW 14.5 km/h 14.5 km/h 44% 0 mm 32.0 W/m2 CLR
15:54 -0.4 °C -11.2 °C 1022.9 hPa West 14.8 km/h 14.8 km/h 44% 0 mm 30.0 W/m2 CLR
15:57 -0.5 °C -11 °C 1022.9 hPa WNW 14.8 km/h 14.8 km/h 45% 0 mm 30.0 W/m2 CLR
15:59 -0.6 °C -11.1 °C 1022.9 hPa WNW 14.8 km/h 14.8 km/h 45% 0 mm 28.0 W/m2 CLR
16:04 -0.7 °C -11.2 °C 1022.9 hPa WNW 9.3 km/h 9.3 km/h 45% 0 mm 30.0 W/m2 CLR
16:10 -0.7 °C -10.9 °C 1023.2 hPa WNW 16.7 km/h 16.7 km/h 46% 0 mm 26.0 W/m2 CLR
16:12 -0.7 °C -11.2 °C 1022.9 hPa West 13 km/h 13 km/h 45% 0 mm 32.0 W/m2 CLR
16:16 -0.8 °C -11 °C 1022.9 hPa West 14.8 km/h 14.8 km/h 46% 0 mm 23.0 W/m2 CLR
16:21 -0.9 °C -11.1 °C 1022.9 hPa West 14.8 km/h 14.8 km/h 46% 0 mm 19.0 W/m2 CLR
16:26 -1 °C -10.9 °C 1022.9 hPa WNW 11.1 km/h 11.1 km/h 47% 0 mm 18.0 W/m2 CLR
16:30 -1 °C -10.9 °C 1022.9 hPa WNW 6.4 km/h 6.4 km/h 47% 0 mm 16.0 W/m2 CLR
16:32 -1.1 °C -10.9 °C 1022.9 hPa WNW 8 km/h 8 km/h 47% 0 mm 14.0 W/m2 CLR
16:37 -1.1 °C -11 °C 1023.2 hPa WNW 5.6 km/h 5.6 km/h 47% 0 mm 12.0 W/m2 CLR
16:41 -1.2 °C -10.8 °C 1023.2 hPa WNW 5.6 km/h 5.6 km/h 48% 0 mm 11.0 W/m2 CLR
16:42 -1.2 °C -10.8 °C 1023.2 hPa WNW 5.6 km/h 5.6 km/h 48% 0 mm 9.0 W/m2 CLR
16:47 -1.4 °C -11 °C 1023.2 hPa WNW 9.3 km/h 9.3 km/h 48% 0 mm 7.0 W/m2 CLR
16:52 -1.5 °C -10.8 °C 1023.2 hPa West 11.1 km/h 11.1 km/h 49% 0 mm 0.0 W/m2 CLR
16:53 -1.5 °C -10.8 °C 1023.2 hPa West 11.1 km/h 11.1 km/h 49% 0 mm 0.0 W/m2 CLR
16:57 -1.7 °C -11 °C 1023.2 hPa WNW 7.4 km/h 7.4 km/h 49% 0 mm 0.0 W/m2 CLR
16:59 -1.7 °C -11 °C 1023.2 hPa WNW 5.6 km/h 5.6 km/h 49% 0 mm 0.0 W/m2 CLR
17:04 -1.8 °C -10.8 °C 1023.6 hPa West 5.6 km/h 5.6 km/h 50% 0 mm 0.0 W/m2 CLR
17:09 -1.9 °C -10.9 °C 1023.6 hPa West 9.3 km/h 9.3 km/h 50% 0 mm 0.0 W/m2 CLR
17:10 -1.9 °C -11 °C 1023.6 hPa West 5.6 km/h 5.6 km/h 50% 0 mm 0.0 W/m2 CLR
17:15 -2 °C -10.8 °C 1023.6 hPa West 9.7 km/h 9.7 km/h 51% 0 mm 0.0 W/m2 CLR
17:16 -2 °C -10.8 °C 1023.6 hPa West 9.7 km/h 9.7 km/h 51% 0 mm 0.0 W/m2 CLR
17:20 -2.1 °C -10.8 °C 1023.6 hPa West 9.3 km/h 9.3 km/h 51% 0 mm 0.0 W/m2 CLR
17:30 -2.2 °C -10.8 °C 1023.6 hPa West 6.4 km/h 6.4 km/h 52% 0 mm 0.0 W/m2 CLR
17:36 -2.3 °C -10.8 °C 1023.6 hPa West 5.6 km/h 5.6 km/h 52% 0 mm 0.0 W/m2 CLR
17:40 -2.3 °C -10.9 °C 1023.6 hPa West 9.3 km/h 9.3 km/h 52% 0 mm 0.0 W/m2 CLR
17:44 -2.3 °C -10.9 °C 1023.6 hPa WNW 11.1 km/h 11.1 km/h 52% 0 mm 0.0 W/m2 CLR
17:49 -2.4 °C -10.7 °C 1023.6 hPa WNW 5.6 km/h 5.6 km/h 53% 0 mm 0.0 W/m2 CLR
17:50 -2.4 °C -10.7 °C 1023.6 hPa WNW 6.4 km/h 6.4 km/h 53% 0 mm 0.0 W/m2 CLR
17:57 -2.5 °C -10.8 °C 1023.9 hPa WNW 6.4 km/h 6.4 km/h 53% 0 mm 0.0 W/m2 CLR
18:02 -2.6 °C -10.7 °C 1023.9 hPa WNW 7.4 km/h 7.4 km/h 54% 0 mm 0.0 W/m2 CLR
18:06 -2.7 °C -10.7 °C 1023.9 hPa WNW 5.6 km/h 5.6 km/h 54% 0 mm 0.0 W/m2 CLR
18:14 -2.8 °C -10.6 °C 1023.9 hPa WNW 5.6 km/h 5.6 km/h 55% 0 mm 0.0 W/m2 CLR
18:15 -2.8 °C -10.6 °C 1023.9 hPa WNW 5.6 km/h 5.6 km/h 55% 0 mm 0.0 W/m2 CLR
18:20 -2.9 °C -10.4 °C 1024.3 hPa WNW 5.6 km/h 5.6 km/h 56% 0 mm 0.0 W/m2 CLR
18:22 -2.9 °C -10.5 °C 1023.9 hPa WNW 7.4 km/h 7.4 km/h 56% 0 mm 0.0 W/m2 CLR
18:26 -2.9 °C -10.5 °C 1023.9 hPa WNW 5.6 km/h 5.6 km/h 56% 0 mm 0.0 W/m2 CLR
18:27 -3 °C -10.6 °C 1024.3 hPa WNW 5.6 km/h 5.6 km/h 56% 0 mm 0.0 W/m2 CLR
18:32 -3.1 °C -10.4 °C 1023.9 hPa WNW 3.7 km/h 3.7 km/h 57% 0 mm 0.0 W/m2 CLR
18:33 -3.1 °C -10.4 °C 1023.9 hPa WNW 3.7 km/h 3.7 km/h 57% 0 mm 0.0 W/m2 CLR
18:38 -3.2 °C -10.5 °C 1023.9 hPa WNW 3.7 km/h 3.7 km/h 57% 0 mm 0.0 W/m2 CLR
18:39 -3.2 °C -10.6 °C 1023.9 hPa WNW 5.6 km/h 5.6 km/h 57% 0 mm 0.0 W/m2 CLR
18:44 -3.3 °C -10.6 °C 1023.9 hPa WNW 3.7 km/h 3.7 km/h 57% 0 mm 0.0 W/m2 CLR
18:45 -3.3 °C -10.6 °C 1023.9 hPa WNW 3.7 km/h 3.7 km/h 57% 0 mm 0.0 W/m2 CLR
18:47 -3.3 °C -10.4 °C 1023.9 hPa WNW 3.7 km/h 3.7 km/h 58% 0 mm 0.0 W/m2 CLR
18:50 -3.4 °C -10.5 °C 1023.9 hPa WNW 5.6 km/h 5.6 km/h 58% 0 mm 0.0 W/m2 CLR
18:54 -3.4 °C -10.6 °C 1024.3 hPa WNW 5.6 km/h 5.6 km/h 58% 0 mm 0.0 W/m2 CLR
18:56 -3.5 °C -10.6 °C 1024.3 hPa WNW 3.7 km/h 3.7 km/h 58% 0 mm 0.0 W/m2 CLR
19:01 -3.6 °C -10.4 °C 1024.3 hPa WNW 3.7 km/h 3.7 km/h 59% 0 mm 0.0 W/m2 CLR
19:02 -3.6 °C -10.4 °C 1024.3 hPa WNW 3.7 km/h 3.7 km/h 59% 0 mm 0.0 W/m2 CLR
19:06 -3.6 °C -10.5 °C 1024.3 hPa WNW 3.7 km/h 3.7 km/h 59% 0 mm 0.0 W/m2 CLR
19:09 -3.6 °C -10.5 °C 1024.3 hPa WNW 3.7 km/h 3.7 km/h 59% 0 mm 0.0 W/m2 CLR
19:12 -3.7 °C -10.5 °C 1024.3 hPa WNW 3.2 km/h 3.2 km/h 59% 0 mm 0.0 W/m2 CLR
19:14 -3.7 °C -10.3 °C 1024.3 hPa WNW 3.7 km/h 3.7 km/h 60% 0 mm 0.0 W/m2 CLR
19:17 -3.7 °C -10.3 °C 1024.3 hPa WNW 5.6 km/h 5.6 km/h 60% 0 mm 0.0 W/m2 CLR
19:22 -3.7 °C -10.4 °C 1024.3 hPa WNW 5.6 km/h 5.6 km/h 60% 0 mm 0.0 W/m2 CLR
19:23 -3.7 °C -10.4 °C 1024.3 hPa WNW 5.6 km/h 5.6 km/h 60% 0 mm 0.0 W/m2 CLR
19:28 -3.8 °C -10.4 °C 1024.3 hPa WNW 5.6 km/h 5.6 km/h 60% 0 mm 0.0 W/m2 CLR
19:29 -3.8 °C -10.4 °C 1024.3 hPa WNW 5.6 km/h 6 km/h 60% 0 mm 0.0 W/m2 CLR
19:34 -3.7 °C -10.4 °C 1024.6 hPa WNW 5.6 km/h 5.6 km/h 60% 0 mm 0.0 W/m2 CLR
19:35 -3.7 °C -10.4 °C 1024.3 hPa WNW 5.6 km/h 5.6 km/h 60% 0 mm 0.0 W/m2 CLR
19:40 -3.7 °C -10.4 °C 1024.6 hPa WNW 7.4 km/h 8.2 km/h 60% 0 mm 0.0 W/m2 CLR
19:45 -3.7 °C -10.1 °C 1024.6 hPa WNW 13 km/h 13 km/h 61% 0 mm 0.0 W/m2 CLR
19:46 -3.7 °C -10.2 °C 1024.6 hPa WNW 13 km/h 13 km/h 61% 0 mm 0.0 W/m2 CLR
19:51 -3.7 °C -10.2 °C 1024.6 hPa WNW 7.4 km/h 7.4 km/h 61% 0 mm 0.0 W/m2 CLR
19:56 -3.8 °C -10.2 °C 1024.6 hPa NW 7.4 km/h 7.4 km/h 61% 0 mm 0.0 W/m2 CLR
19:57 -3.8 °C -10.2 °C 1024.6 hPa NW 7.4 km/h 7.4 km/h 61% 0 mm 0.0 W/m2 CLR
20:02 -3.8 °C -10.3 °C 1024.6 hPa NW 5.6 km/h 5.6 km/h 61% 0 mm 0.0 W/m2 CLR
20:04 -3.9 °C -10.1 °C 1024.6 hPa NNW 6.4 km/h 6.4 km/h 62% 0 mm 0.0 W/m2 CLR
20:07 -3.9 °C -10.2 °C 1024.9 hPa NW 5.6 km/h 5.6 km/h 62% 0 mm 0.0 W/m2 CLR
20:12 -3.9 °C -10.2 °C 1024.9 hPa NW 7.4 km/h 7.4 km/h 62% 0 mm 0.0 W/m2 CLR
20:14 -4 °C -10.2 °C 1024.9 hPa NW 5.6 km/h 5.6 km/h 62% 0 mm 0.0 W/m2 CLR
20:18 -4 °C -10.2 °C 1024.9 hPa NW 6.4 km/h 6.4 km/h 62% 0 mm 0.0 W/m2 CLR
20:19 -4.1 °C -10.3 °C 1024.9 hPa NW 16.1 km/h 16.1 km/h 62% 0 mm 0.0 W/m2 CLR
20:20 -4.1 °C -10.3 °C 1024.9 hPa NW 16.7 km/h 16.7 km/h 62% 0 mm 0.0 W/m2 CLR
20:25 -4.1 °C -10.1 °C 1024.9 hPa NW 5.6 km/h 5.6 km/h 63% 0 mm 0.0 W/m2 CLR
20:30 -4.2 °C -10.2 °C 1024.9 hPa NW 3.7 km/h 3.7 km/h 63% 0 mm 0.0 W/m2 CLR
20:31 -4.2 °C -10.2 °C 1024.9 hPa NW 5.6 km/h 5.6 km/h 63% 0 mm 0.0 W/m2 CLR
20:36 -4.3 °C -10.3 °C 1024.9 hPa NW 5.6 km/h 5.6 km/h 63% 0 mm 0.0 W/m2 CLR
20:37 -4.3 °C -10.3 °C 1024.9 hPa NW 5.6 km/h 5.6 km/h 63% 0 mm 0.0 W/m2 CLR
20:42 -4.4 °C -10.2 °C 1024.9 hPa NW 5.6 km/h 5.6 km/h 64% 0 mm 0.0 W/m2 CLR
20:46 -4.4 °C -10.2 °C 1024.9 hPa NW 5.6 km/h 5.6 km/h 64% 0 mm 0.0 W/m2 CLR
20:48 -4.5 °C -10.3 °C 1024.9 hPa NW 4.8 km/h 4.8 km/h 64% 0 mm 0.0 W/m2 CLR
20:55 -4.6 °C -10.3 °C 1024.9 hPa North 5.6 km/h 5.6 km/h 64% 0 mm 0.0 W/m2 CLR
21:00 -4.7 °C -10.4 °C 1024.9 hPa NW 5.6 km/h 5.6 km/h 64% 0 mm 0.0 W/m2 CLR
21:05 -4.7 °C -10.3 °C 1024.9 hPa NNE 5.6 km/h 5.6 km/h 65% 0 mm 0.0 W/m2 CLR
21:09 -4.7 °C -10.3 °C 1024.9 hPa NNW 5.6 km/h 5.6 km/h 65% 0 mm 0.0 W/m2 CLR
21:12 -4.8 °C -10.3 °C 1024.9 hPa NNW 3.7 km/h 3.7 km/h 65% 0 mm 0.0 W/m2 CLR
21:17 -4.8 °C -10.4 °C 1024.9 hPa NNW 3.7 km/h 3.7 km/h 65% 0 mm 0.0 W/m2 CLR
21:19 -4.8 °C -10.4 °C 1024.9 hPa NNW 3.7 km/h 3.7 km/h 65% 0 mm 0.0 W/m2 CLR
21:22 -4.9 °C -10.4 °C 1025.3 hPa NW 11.1 km/h 11.1 km/h 65% 0 mm 0.0 W/m2 CLR
21:25 -4.9 °C -10.5 °C 1025.3 hPa NW 3.7 km/h 3.7 km/h 65% 0 mm 0.0 W/m2 CLR
21:30 -5 °C -10.6 °C 1025.3 hPa NW 3.7 km/h 3.7 km/h 65% 0 mm 0.0 W/m2 CLR
21:40 -5.1 °C -10.5 °C 1024.9 hPa NW 3.7 km/h 3.7 km/h 66% 0 mm 0.0 W/m2 CLR
21:42 -5.2 °C -10.6 °C 1025.3 hPa NW 1.9 km/h 1.9 km/h 66% 0 mm 0.0 W/m2 CLR
21:47 -5.2 °C -10.6 °C 1025.3 hPa NW 3.7 km/h 3.7 km/h 66% 0 mm 0.0 W/m2 CLR
21:48 -5.3 °C -10.7 °C 1024.9 hPa NW 1.9 km/h 1.9 km/h 66% 0 mm 0.0 W/m2 CLR
21:50 -5.3 °C -10.4 °C 1024.9 hPa Calm     67% 0 mm 0.0 W/m2 CLR
21:55 -5.3 °C -10.5 °C 1024.9 hPa NW 3.7 km/h 3.7 km/h 67% 0 mm 0.0 W/m2 CLR
21:56 -5.4 °C -10.6 °C 1024.9 hPa NW 3.7 km/h 3.7 km/h 67% 0 mm 0.0 W/m2 CLR
22:00 -5.5 °C -10.7 °C 1024.9 hPa NW 3.7 km/h 3.7 km/h 67% 0 mm 0.0 W/m2 CLR
22:03 -5.5 °C -10.5 °C 1025.3 hPa Calm     68% 0 mm 0.0 W/m2 CLR
22:07 -5.6 °C -10.6 °C 1024.9 hPa Calm     68% 0 mm 0.0 W/m2 CLR
22:08 -5.6 °C -10.6 °C 1025.3 hPa Calm     68% 0 mm 0.0 W/m2 CLR
22:13 -5.7 °C -10.6 °C 1024.9 hPa Calm     68% 0 mm 0.0 W/m2 CLR
22:14 -5.7 °C -10.7 °C 1024.9 hPa Calm     68% 0 mm 0.0 W/m2 CLR
22:15 -5.7 °C -10.7 °C 1024.9 hPa NW 3.7 km/h 3.7 km/h 68% 0 mm 0.0 W/m2 CLR
22:16 -5.7 °C -10.7 °C 1024.9 hPa NW 3.7 km/h 3.7 km/h 68% 0 mm 0.0 W/m2 CLR
22:17 -5.8 °C -10.7 °C 1024.9 hPa NW 1.9 km/h 1.9 km/h 68% 0 mm 0.0 W/m2 CLR
22:18 -5.8 °C -10.6 °C 1024.9 hPa NW 3.7 km/h 3.7 km/h 69% 0 mm 0.0 W/m2 CLR
22:22 -5.8 °C -10.6 °C 1024.9 hPa NW 3.7 km/h 3.7 km/h 69% 0 mm 0.0 W/m2 CLR
22:27 -5.9 °C -10.7 °C 1024.9 hPa Calm     69% 0 mm 0.0 W/m2 CLR
22:33 -6 °C -10.6 °C 1024.9 hPa NW 1.9 km/h 1.9 km/h 70% 0 mm 0.0 W/m2 CLR
22:36 -6.1 °C -10.7 °C 1024.9 hPa Calm     70% 0 mm 0.0 W/m2 CLR
22:41 -6.2 °C -10.8 °C 1024.9 hPa Calm     70% 0 mm 0.0 W/m2 CLR
22:42 -6.2 °C -10.8 °C 1024.9 hPa NW 1.9 km/h 1.9 km/h 70% 0 mm 0.0 W/m2 CLR
22:43 -6.2 °C -10.8 °C 1024.9 hPa NW 1.9 km/h   70% 0 mm 0.0 W/m2 CLR
22:44 -6.2 °C -10.8 °C 1024.9 hPa Calm     70% 0 mm 0.0 W/m2 CLR
22:49 -6.3 °C -10.7 °C 1024.9 hPa NW 1.9 km/h 1.9 km/h 71% 0 mm 0.0 W/m2 CLR
22:50 -6.3 °C -10.7 °C 1024.9 hPa NW 1.9 km/h 1.9 km/h 71% 0 mm 0.0 W/m2 CLR
22:52 -6.3 °C -10.7 °C 1024.9 hPa NW 1.9 km/h   71% 0 mm 0.0 W/m2 CLR
22:56 -6.4 °C -10.8 °C 1024.9 hPa NW 1.9 km/h   71% 0 mm 0.0 W/m2 CLR
22:57 -6.4 °C -10.8 °C 1024.9 hPa Calm     71% 0 mm 0.0 W/m2 CLR
23:02 -6.5 °C -10.9 °C 1024.9 hPa Calm     71% 0 mm 0.0 W/m2 CLR
23:03 -6.5 °C -10.9 °C 1024.9 hPa Calm     71% 0 mm 0.0 W/m2 CLR
23:04 -6.5 °C -10.9 °C 1024.9 hPa Calm     71% 0 mm 0.0 W/m2 CLR
23:09 -6.6 °C -10.8 °C 1024.9 hPa NW 1.9 km/h   72% 0 mm 0.0 W/m2 CLR
23:14 -6.7 °C -10.9 °C 1024.9 hPa NW 1.9 km/h 1.9 km/h 72% 0 mm 0.0 W/m2 CLR
23:16 -6.7 °C -10.9 °C 1024.9 hPa Calm     72% 0 mm 0.0 W/m2 CLR
23:19 -6.7 °C -10.9 °C 1024.9 hPa Calm     72% 0 mm 0.0 W/m2 CLR
23:21 -6.8 °C -11 °C 1024.9 hPa NW 1.9 km/h 1.9 km/h 72% 0 mm 0.0 W/m2 CLR
23:26 -6.8 °C -10.9 °C 1024.9 hPa NW 3.7 km/h 3.7 km/h 73% 0 mm 0.0 W/m2 CLR
23:30 -6.9 °C -10.9 °C 1024.9 hPa NW 3.7 km/h 3.7 km/h 73% 0 mm 0.0 W/m2 CLR
23:35 -7 °C -11 °C 1024.9 hPa NW 1.9 km/h 1.9 km/h 73% 0 mm 0.0 W/m2 CLR
23:36 -7 °C -11 °C 1024.9 hPa NW 1.9 km/h 1.9 km/h 73% 0 mm 0.0 W/m2 CLR
23:38 -7 °C -10.8 °C 1024.9 hPa NW 1.6 km/h 1.6 km/h 74% 0 mm 0.0 W/m2 CLR
23:42 -7.1 °C -10.9 °C 1024.9 hPa NW 1.9 km/h 1.9 km/h 74% 0 mm 0.0 W/m2 CLR
23:44 -7.1 °C -10.9 °C 1024.9 hPa NW 1.9 km/h 1.9 km/h 74% 0 mm 0.0 W/m2 CLR
23:48 -7.2 °C -11 °C 1024.9 hPa Calm     74% 0 mm 0.0 W/m2 CLR
23:53 -7.2 °C -10.9 °C 1024.6 hPa NW 3.7 km/h 3.7 km/h 75% 0 mm 0.0 W/m2 CLR
23:56 -7.3 °C -11 °C 1024.6 hPa NW 3.7 km/h   75% 0 mm 0.0 W/m2 CLR
23:59 -7.3 °C -11 °C 1024.6 hPa NW 3.7 km/h 3.7 km/h 75% 0 mm 0.0 W/m2 CLR
Bruceton, TN. NWS Weather Forecast
Compliments of:  Weather Underground - 6 mb

Interesting Weather Facts
FASTEST WIND SPEED RECORDED
Observed by a Doppler On Wheels radar unit in a tornado near Oklahoma City, Oklahoma on 3 May 1999, a 3-second gust registered at 301±20 mph (484±32 km/h).